createdAt,value
2023-04-16T00:00:22.573Z,10.20
2023-04-16T00:02:50.758Z,10.20
2023-04-16T00:05:19.146Z,10.20
2023-04-16T00:07:47.301Z,10.20
2023-04-16T00:10:16.015Z,10.20
2023-04-16T00:12:45.482Z,10.20
2023-04-16T00:15:13.508Z,10.20
2023-04-16T00:17:41.796Z,10.20
2023-04-16T00:20:11.560Z,10.20
2023-04-16T00:22:39.943Z,10.20
2023-04-16T00:25:08.653Z,10.20
2023-04-16T00:27:36.771Z,10.20
2023-04-16T00:30:07.546Z,10.20
2023-04-16T00:32:35.842Z,10.20
2023-04-16T00:35:04.075Z,10.10
2023-04-16T00:37:32.194Z,10.10
2023-04-16T00:40:00.557Z,10.10
2023-04-16T00:42:28.676Z,10.10
2023-04-16T00:44:56.752Z,10.10
2023-04-16T00:47:28.023Z,10.10
2023-04-16T00:49:56.175Z,10.10
2023-04-16T00:52:24.224Z,10.20
2023-04-16T00:54:52.306Z,10.20
2023-04-16T00:57:23.957Z,10.10
2023-04-16T00:59:52.482Z,10.20
2023-04-16T01:02:20.586Z,10.10
2023-04-16T01:04:50.070Z,10.20
2023-04-16T01:07:20.915Z,10.10
2023-04-16T01:09:48.964Z,10.10
2023-04-16T01:12:17.052Z,10.10
2023-04-16T01:14:45.176Z,10.20
2023-04-16T01:17:13.402Z,10.20
2023-04-16T01:19:41.506Z,10.20
2023-04-16T01:22:11.078Z,10.10
2023-04-16T01:24:39.620Z,10.10
2023-04-16T01:27:07.768Z,10.10
2023-04-16T01:29:36.175Z,10.10
2023-04-16T01:32:04.198Z,10.10
2023-04-16T01:34:32.228Z,10.10
2023-04-16T01:37:00.261Z,10.10
2023-04-16T01:39:29.681Z,10.10
2023-04-16T01:41:57.655Z,10.10
2023-04-16T01:44:25.740Z,10.00
2023-04-16T01:46:53.887Z,10.10
2023-04-16T01:49:22.083Z,10.10
2023-04-16T01:51:50.134Z,10.10
2023-04-16T01:54:18.238Z,10.10
2023-04-16T01:56:47.664Z,10.00
2023-04-16T01:59:15.775Z,10.10
2023-04-16T02:01:44.050Z,10.10
2023-04-16T02:04:13.816Z,10.10
2023-04-16T02:06:41.989Z,10.10
2023-04-16T02:09:10.220Z,10.10
2023-04-16T02:11:38.634Z,10.10
2023-04-16T02:14:08.686Z,10.10
2023-04-16T02:16:36.855Z,10.10
2023-04-16T02:19:04.966Z,10.10
2023-04-16T02:21:33.024Z,10.00
2023-04-16T02:24:01.102Z,10.00
2023-04-16T02:26:29.692Z,10.00
2023-04-16T02:28:57.748Z,10.00
2023-04-16T02:31:28.555Z,10.10
2023-04-16T02:33:56.660Z,10.00
2023-04-16T02:36:25.018Z,10.00
2023-04-16T02:38:53.072Z,10.00
2023-04-16T02:41:21.457Z,10.00
2023-04-16T02:43:49.534Z,10.00
2023-04-16T02:46:17.823Z,10.00
2023-04-16T02:48:47.360Z,10.00
2023-04-16T02:51:15.414Z,10.00
2023-04-16T02:53:45.920Z,10.00
2023-04-16T02:56:14.345Z,10.00
2023-04-16T02:58:42.471Z,10.00
2023-04-16T03:01:11.049Z,10.00
2023-04-16T03:03:39.161Z,10.00
2023-04-16T03:06:08.643Z,10.00
2023-04-16T03:08:36.712Z,9.90
2023-04-16T03:11:04.946Z,10.00
2023-04-16T03:13:33.001Z,10.00
2023-04-16T03:16:01.163Z,10.00
2023-04-16T03:18:29.353Z,10.00
2023-04-16T03:20:57.469Z,10.00
2023-04-16T03:23:28.171Z,10.00
2023-04-16T03:25:56.218Z,10.00
2023-04-16T03:28:24.369Z,10.00
2023-04-16T03:30:53.531Z,9.90
2023-04-16T03:33:22.804Z,9.90
2023-04-16T03:35:57.458Z,9.90
2023-04-16T03:38:27.289Z,9.80
2023-04-16T03:40:55.376Z,9.90
2023-04-16T03:43:23.502Z,10.00
2023-04-16T03:45:51.771Z,10.00
2023-04-16T03:48:19.839Z,9.90
2023-04-16T03:50:48.557Z,9.90
2023-04-16T03:53:16.613Z,10.00
2023-04-16T03:55:46.021Z,9.90
2023-04-16T03:58:14.052Z,9.80
2023-04-16T04:00:43.755Z,9.90
2023-04-16T04:03:12.058Z,9.90
2023-04-16T04:05:41.249Z,9.80
2023-04-16T04:08:09.643Z,9.80
2023-04-16T04:10:37.825Z,9.90
2023-04-16T04:13:08.394Z,9.80
2023-04-16T04:15:36.616Z,9.80
2023-04-16T04:18:04.780Z,9.80
2023-04-16T04:20:32.826Z,9.90
2023-04-16T04:23:00.911Z,9.90
2023-04-16T04:25:29.070Z,9.80
2023-04-16T04:27:57.157Z,9.80
2023-04-16T04:30:26.597Z,9.90
2023-04-16T04:32:54.771Z,9.80
2023-04-16T04:35:22.889Z,9.80
2023-04-16T04:37:50.987Z,9.80
2023-04-16T04:40:19.076Z,9.80
2023-04-16T04:42:47.182Z,9.80
2023-04-16T04:45:15.299Z,9.80
2023-04-16T04:47:44.901Z,9.80
2023-04-16T04:50:13.017Z,9.80
2023-04-16T04:52:41.056Z,9.80
2023-04-16T04:55:09.657Z,9.80
2023-04-16T04:57:37.758Z,9.80
2023-04-16T05:00:06.530Z,9.80
2023-04-16T05:02:34.773Z,9.80
2023-04-16T05:05:04.409Z,9.80
2023-04-16T05:07:32.661Z,9.70
2023-04-16T05:10:01.189Z,9.80
2023-04-16T05:12:29.297Z,9.80
2023-04-16T05:14:57.365Z,9.80
2023-04-16T05:17:25.458Z,9.80
2023-04-16T05:19:53.856Z,9.80
2023-04-16T05:22:23.331Z,9.80
2023-04-16T05:24:51.356Z,9.80
2023-04-16T05:27:19.476Z,9.80
2023-04-16T05:29:47.571Z,9.80
2023-04-16T05:32:16.174Z,9.70
2023-04-16T05:34:44.298Z,9.70
2023-04-16T05:37:12.540Z,9.70
2023-04-16T05:39:41.947Z,9.70
2023-04-16T05:42:10.050Z,9.80
2023-04-16T05:44:38.092Z,9.80
2023-04-16T05:47:07.329Z,9.80
2023-04-16T05:49:35.560Z,9.70
2023-04-16T05:52:07.480Z,9.70
2023-04-16T05:54:35.611Z,9.60
2023-04-16T05:57:05.355Z,9.70
2023-04-16T05:59:34.452Z,9.80
2023-04-16T06:02:02.566Z,9.70
2023-04-16T06:04:31.015Z,9.80
2023-04-16T06:06:59.056Z,9.80
2023-04-16T06:09:27.241Z,9.70
2023-04-16T06:11:55.490Z,9.70
2023-04-16T06:14:24.916Z,9.70
2023-04-16T06:16:52.950Z,9.70
2023-04-16T06:19:21.020Z,9.80
2023-04-16T06:21:49.074Z,9.80
2023-04-16T06:24:18.423Z,9.80
2023-04-16T06:26:46.645Z,9.80
2023-04-16T06:29:15.259Z,9.70
2023-04-16T06:31:44.804Z,9.70
2023-04-16T06:34:12.942Z,9.70
2023-04-16T06:36:41.184Z,9.70
2023-04-16T06:39:09.463Z,9.70
2023-04-16T06:41:37.872Z,9.70
2023-04-16T06:44:06.124Z,9.60
2023-04-16T06:46:34.237Z,9.70
2023-04-16T06:49:03.709Z,9.70
2023-04-16T06:51:31.858Z,9.70
2023-04-16T06:54:00.034Z,9.70
2023-04-16T06:56:28.094Z,9.70
2023-04-16T06:58:57.150Z,9.80
2023-04-16T07:01:25.351Z,9.70
2023-04-16T07:03:53.789Z,9.70
2023-04-16T07:06:23.431Z,9.60
2023-04-16T07:08:51.537Z,9.70
2023-04-16T07:11:20.921Z,9.70
2023-04-16T07:13:49.101Z,9.70
2023-04-16T07:16:17.259Z,9.70
2023-04-16T07:18:45.332Z,9.80
2023-04-16T07:21:13.428Z,9.80
2023-04-16T07:23:43.032Z,9.80
2023-04-16T07:26:11.679Z,9.80
2023-04-16T07:28:39.770Z,9.80
2023-04-16T07:31:07.963Z,9.80
2023-04-16T07:33:36.023Z,9.90
2023-04-16T07:36:04.165Z,9.90
2023-04-16T07:38:32.310Z,9.90
2023-04-16T07:41:01.940Z,9.90
2023-04-16T07:43:30.044Z,9.90
2023-04-16T07:45:58.100Z,9.90
2023-04-16T07:48:26.575Z,9.80
2023-04-16T07:50:54.676Z,9.90
2023-04-16T07:53:22.792Z,9.90
2023-04-16T07:55:50.911Z,9.90
2023-04-16T07:58:20.449Z,10.00
2023-04-16T08:00:49.792Z,10.00
2023-04-16T08:03:19.570Z,10.00
2023-04-16T08:05:47.850Z,10.00
2023-04-16T08:08:16.114Z,10.00
2023-04-16T08:10:44.235Z,9.90
2023-04-16T08:13:12.379Z,10.00
2023-04-16T08:15:41.954Z,9.90
2023-04-16T08:18:12.961Z,10.00
2023-04-16T08:20:41.163Z,10.00
2023-04-16T08:23:09.322Z,9.90
2023-04-16T08:25:37.393Z,10.00
2023-04-16T08:28:05.911Z,10.00
2023-04-16T08:30:34.365Z,10.00
2023-04-16T08:33:04.228Z,10.00
2023-04-16T08:35:32.484Z,10.00
2023-04-16T08:38:02.351Z,10.00
2023-04-16T08:40:32.385Z,10.00
2023-04-16T08:43:01.695Z,10.00
2023-04-16T08:45:30.297Z,10.00
2023-04-16T08:47:58.527Z,10.10
2023-04-16T08:50:28.658Z,10.00
2023-04-16T08:53:00.605Z,10.00
2023-04-16T08:55:36.995Z,10.00
2023-04-16T08:58:10.575Z,10.00
2023-04-16T09:00:40.999Z,10.00
2023-04-16T09:03:10.569Z,10.00
2023-04-16T09:05:40.911Z,10.00
2023-04-16T09:08:09.361Z,10.10
2023-04-16T09:10:37.562Z,10.20
2023-04-16T09:13:05.865Z,10.00
2023-04-16T09:15:36.593Z,10.20
2023-04-16T09:18:05.061Z,10.30
2023-04-16T09:20:33.220Z,10.20
2023-04-16T09:23:03.123Z,10.30
2023-04-16T09:25:34.992Z,10.30
2023-04-16T09:28:03.161Z,10.30
2023-04-16T09:30:31.275Z,10.30
2023-04-16T09:33:16.752Z,10.30
2023-04-16T09:35:49.399Z,10.30
2023-04-16T09:38:19.377Z,10.20
2023-04-16T09:40:48.538Z,10.20
2023-04-16T09:43:18.262Z,10.20
2023-04-16T09:45:51.005Z,10.20
2023-04-16T09:48:30.366Z,10.30
2023-04-16T09:50:58.745Z,10.20
2023-04-16T09:53:33.027Z,10.20
2023-04-16T09:56:02.733Z,10.30
2023-04-16T09:58:30.915Z,10.30
2023-04-16T10:01:02.801Z,10.30
2023-04-16T10:03:32.645Z,10.30
2023-04-16T10:06:02.848Z,10.30
2023-04-16T10:08:32.384Z,10.30
2023-04-16T10:11:01.058Z,10.30
2023-04-16T10:13:31.254Z,10.30
2023-04-16T10:15:59.593Z,10.30
2023-04-16T10:18:28.479Z,10.30
2023-04-16T10:20:56.763Z,10.30
2023-04-16T10:23:24.904Z,10.30
2023-04-16T10:25:57.594Z,10.30
2023-04-16T10:28:27.144Z,10.30
2023-04-16T10:30:57.817Z,10.30
2023-04-16T10:33:28.940Z,10.40
2023-04-16T10:36:09.786Z,10.40
2023-04-16T10:38:40.907Z,10.40
2023-04-16T10:41:10.986Z,10.40
2023-04-16T10:43:43.927Z,10.30
2023-04-16T10:46:23.258Z,10.30
2023-04-16T10:48:54.466Z,10.30
2023-04-16T10:51:31.455Z,10.20
2023-04-16T10:54:04.963Z,10.30
2023-04-16T10:56:36.049Z,10.30
2023-04-16T10:59:06.617Z,10.30
2023-04-16T11:01:36.170Z,10.30
2023-04-16T11:04:29.829Z,10.40
2023-04-16T11:07:08.818Z,10.30
2023-04-16T11:09:48.256Z,10.30
2023-04-16T11:12:18.867Z,10.30
2023-04-16T11:14:49.681Z,10.40
2023-04-16T11:17:18.633Z,10.40
2023-04-16T11:19:47.361Z,10.40
2023-04-16T11:22:18.177Z,10.40
2023-04-16T11:24:47.327Z,10.40
2023-04-16T11:27:17.151Z,10.50
2023-04-16T11:29:47.452Z,10.50
2023-04-16T11:32:22.940Z,10.50
2023-04-16T11:34:51.271Z,10.50
2023-04-16T11:37:22.590Z,10.50
2023-04-16T11:39:52.051Z,10.50
2023-04-16T11:42:24.775Z,10.50
2023-04-16T11:44:54.652Z,10.50
2023-04-16T11:47:23.912Z,10.60
2023-04-16T11:49:52.666Z,10.60
2023-04-16T11:52:28.484Z,10.60
2023-04-16T11:54:56.898Z,10.60
2023-04-16T11:57:31.441Z,10.60
2023-04-16T12:00:04.052Z,10.60
2023-04-16T12:02:38.060Z,10.70
2023-04-16T12:05:26.656Z,10.80
2023-04-16T12:07:54.821Z,10.80
2023-04-16T12:10:22.984Z,10.80
2023-04-16T12:12:52.520Z,10.80
2023-04-16T12:15:20.709Z,10.80
2023-04-16T12:17:50.604Z,10.80
2023-04-16T12:20:18.880Z,10.80
2023-04-16T12:22:49.703Z,10.90
2023-04-16T12:25:19.060Z,10.90
2023-04-16T12:27:51.486Z,10.90
2023-04-16T12:30:23.872Z,10.90
2023-04-16T12:32:55.555Z,10.90
2023-04-16T12:35:32.343Z,10.80
2023-04-16T12:38:01.005Z,10.80
2023-04-16T12:40:29.388Z,10.80
2023-04-16T12:42:57.574Z,10.90
2023-04-16T12:45:27.208Z,10.90
2023-04-16T12:47:55.919Z,10.90
2023-04-16T12:50:24.272Z,10.90
2023-04-16T12:52:52.470Z,10.90
2023-04-16T12:55:20.901Z,10.90
2023-04-16T12:57:49.903Z,10.90
2023-04-16T13:00:18.577Z,10.90
2023-04-16T13:02:48.687Z,10.90
2023-04-16T13:05:19.313Z,10.90
2023-04-16T13:07:47.858Z,10.90
2023-04-16T13:10:16.801Z,10.90
2023-04-16T13:12:46.706Z,10.90
2023-04-16T13:15:14.944Z,10.90
2023-04-16T13:17:43.152Z,10.90
2023-04-16T13:20:13.045Z,10.90
2023-04-16T13:22:41.365Z,10.80
2023-04-16T13:25:10.614Z,10.90
2023-04-16T13:27:38.692Z,10.90
2023-04-16T13:30:08.871Z,10.90
2023-04-16T13:32:37.181Z,10.90
2023-04-16T13:35:05.876Z,10.90
2023-04-16T13:37:36.200Z,10.90
2023-04-16T13:40:04.398Z,10.90
2023-04-16T13:42:32.563Z,10.80
2023-04-16T13:45:01.403Z,10.80
2023-04-16T13:47:30.184Z,10.80
2023-04-16T13:49:58.470Z,10.80
2023-04-16T13:52:26.610Z,10.70
2023-04-16T13:54:58.417Z,10.70
2023-04-16T13:57:29.020Z,10.80
2023-04-16T13:59:57.427Z,10.80
2023-04-16T14:02:26.671Z,10.70
2023-04-16T14:04:54.985Z,10.70
2023-04-16T14:07:26.237Z,10.70
2023-04-16T14:09:55.980Z,10.70
2023-04-16T14:12:24.131Z,10.70
2023-04-16T14:14:52.261Z,10.70
2023-04-16T14:17:20.428Z,10.70
2023-04-16T14:19:48.601Z,10.80
2023-04-16T14:22:17.851Z,10.80
2023-04-16T14:24:46.147Z,10.80
2023-04-16T14:27:17.012Z,10.80
2023-04-16T14:29:46.529Z,10.80
2023-04-16T14:32:14.682Z,10.80
2023-04-16T14:34:42.819Z,10.80
2023-04-16T14:37:10.975Z,10.80
2023-04-16T14:39:39.799Z,10.80
2023-04-16T14:42:08.191Z,10.80
2023-04-16T14:44:37.822Z,10.80
2023-04-16T14:47:06.140Z,10.80
2023-04-16T14:49:35.046Z,10.80
2023-04-16T14:52:05.569Z,10.80
2023-04-16T14:54:34.008Z,10.80
2023-04-16T14:57:02.496Z,10.80
2023-04-16T14:59:31.474Z,10.80
2023-04-16T15:02:01.189Z,10.80
2023-04-16T15:04:30.873Z,10.80
2023-04-16T15:06:59.266Z,10.80
2023-04-16T15:09:27.832Z,10.80
2023-04-16T15:11:56.988Z,10.80
2023-04-16T15:14:25.300Z,10.70
2023-04-16T15:16:54.186Z,10.70
2023-04-16T15:19:23.796Z,10.70
2023-04-16T15:21:51.967Z,10.70
2023-04-16T15:24:20.076Z,10.70
2023-04-16T15:26:48.258Z,10.70
2023-04-16T15:29:16.330Z,10.70
2023-04-16T15:31:44.448Z,10.60
2023-04-16T15:34:12.760Z,10.60
2023-04-16T15:36:43.223Z,10.70
2023-04-16T15:39:11.956Z,10.70
2023-04-16T15:41:57.070Z,10.70
2023-04-16T15:44:28.564Z,10.60
2023-04-16T15:46:56.789Z,10.60
2023-04-16T15:49:25.571Z,10.60
2023-04-16T15:51:55.260Z,10.60
2023-04-16T15:54:23.498Z,10.60
2023-04-16T15:56:52.355Z,10.60
2023-04-16T15:59:20.616Z,10.60
2023-04-16T16:01:49.082Z,10.60
2023-04-16T16:04:17.499Z,10.70
2023-04-16T16:06:45.876Z,10.70
2023-04-16T16:09:15.334Z,10.70
2023-04-16T16:11:43.464Z,10.70
2023-04-16T16:14:11.593Z,10.70
2023-04-16T16:16:40.285Z,10.70
2023-04-16T16:19:08.610Z,10.70
2023-04-16T16:21:37.047Z,10.70
2023-04-16T16:24:05.335Z,10.60
2023-04-16T16:26:35.109Z,10.70
2023-04-16T16:29:03.280Z,10.70
2023-04-16T16:31:31.836Z,10.70
2023-04-16T16:34:00.074Z,10.70
2023-04-16T16:36:29.689Z,10.60
2023-04-16T16:38:58.323Z,10.60
2023-04-16T16:41:26.561Z,10.60
2023-04-16T16:43:56.903Z,10.70
2023-04-16T16:46:25.339Z,10.70
2023-04-16T16:48:53.548Z,10.60
2023-04-16T16:51:21.841Z,10.60
2023-04-16T16:53:49.997Z,10.60
2023-04-16T16:56:18.379Z,10.60
2023-04-16T16:58:46.663Z,10.60
2023-04-16T17:01:16.262Z,10.60
2023-04-16T17:03:44.571Z,10.60
2023-04-16T17:06:12.862Z,10.60
2023-04-16T17:08:41.047Z,10.60
2023-04-16T17:11:09.252Z,10.60
2023-04-16T17:13:37.431Z,10.60
2023-04-16T17:16:05.828Z,10.50
2023-04-16T17:18:35.533Z,10.50
2023-04-16T17:21:03.673Z,10.50
2023-04-16T17:23:31.747Z,10.50
2023-04-16T17:26:00.484Z,10.50
2023-04-16T17:28:28.642Z,10.50
2023-04-16T17:30:57.245Z,10.50
2023-04-16T17:33:25.383Z,10.50
2023-04-16T17:35:54.909Z,10.50
2023-04-16T17:38:23.048Z,10.50
2023-04-16T17:40:51.109Z,10.50
2023-04-16T17:43:19.291Z,10.40
2023-04-16T17:45:47.642Z,10.50
2023-04-16T17:48:15.898Z,10.40
2023-04-16T17:50:44.062Z,10.40
2023-04-16T17:53:13.700Z,10.40
2023-04-16T17:55:42.752Z,10.40
2023-04-16T17:58:10.912Z,10.40
2023-04-16T18:00:38.993Z,10.40
2023-04-16T18:03:09.745Z,10.40
2023-04-16T18:05:37.975Z,10.40
2023-04-16T18:08:06.544Z,10.40
2023-04-16T18:10:36.197Z,10.40
2023-04-16T18:13:04.368Z,10.40
2023-04-16T18:15:32.526Z,10.40
2023-04-16T18:18:00.763Z,10.40
2023-04-16T18:20:28.950Z,10.50
2023-04-16T18:22:57.179Z,10.50
2023-04-16T18:25:33.685Z,10.50
2023-04-16T18:28:06.295Z,10.40
2023-04-16T18:30:35.506Z,10.40
2023-04-16T18:33:25.187Z,10.40
2023-04-16T18:35:51.953Z,10.50
2023-04-16T18:38:20.191Z,10.50
2023-04-16T18:40:49.769Z,10.50
2023-04-16T18:43:19.317Z,10.50
2023-04-16T18:45:47.454Z,10.40
2023-04-16T18:48:15.831Z,10.40
2023-04-16T18:50:44.029Z,10.40
2023-04-16T18:53:12.112Z,10.40
2023-04-16T18:55:40.379Z,10.40
2023-04-16T18:58:08.651Z,10.40
2023-04-16T19:00:38.296Z,10.40
2023-04-16T19:03:07.705Z,10.40
2023-04-16T19:05:36.439Z,10.40
2023-04-16T19:08:04.637Z,10.40
2023-04-16T19:10:32.862Z,10.40
2023-04-16T19:13:01.242Z,10.40
2023-04-16T19:15:31.629Z,10.40
2023-04-16T19:18:02.740Z,10.40
2023-04-16T19:20:30.921Z,10.40
2023-04-16T19:22:59.163Z,10.40
2023-04-16T19:25:27.263Z,10.40
2023-04-16T19:27:55.959Z,10.40
2023-04-16T19:30:24.206Z,10.40
2023-04-16T19:32:55.034Z,10.40
2023-04-16T19:35:25.050Z,10.40
2023-04-16T19:37:56.290Z,10.40
2023-04-16T19:40:24.469Z,10.30
2023-04-16T19:42:52.613Z,10.30
2023-04-16T19:45:25.691Z,10.30
2023-04-16T19:47:54.312Z,10.30
2023-04-16T19:50:24.271Z,10.40
2023-04-16T19:52:52.572Z,10.30
2023-04-16T19:55:20.960Z,10.30
2023-04-16T19:57:49.370Z,10.30
2023-04-16T20:00:18.188Z,10.30
2023-04-16T20:02:46.533Z,10.30
2023-04-16T20:05:15.327Z,10.40
2023-04-16T20:07:44.980Z,10.30
2023-04-16T20:10:13.231Z,10.40
2023-04-16T20:12:41.529Z,10.40
2023-04-16T20:15:10.725Z,10.30
2023-04-16T20:17:39.149Z,10.30
2023-04-16T20:20:10.252Z,10.30
2023-04-16T20:22:38.718Z,10.30
2023-04-16T20:25:10.103Z,10.30
2023-04-16T20:27:38.552Z,10.30
2023-04-16T20:30:07.980Z,10.30
2023-04-16T20:32:38.194Z,10.30
2023-04-16T20:35:10.848Z,10.30
2023-04-16T20:37:39.879Z,10.30
2023-04-16T20:40:11.148Z,10.40
2023-04-16T20:42:40.888Z,10.30
2023-04-16T20:45:12.585Z,10.40
2023-04-16T20:47:41.069Z,10.30
2023-04-16T20:50:11.165Z,10.30
2023-04-16T20:52:39.377Z,10.30
2023-04-16T20:55:10.141Z,10.30
2023-04-16T20:57:38.535Z,10.20
2023-04-16T21:00:12.485Z,10.30
2023-04-16T21:02:44.117Z,10.30
2023-04-16T21:05:15.000Z,10.30
2023-04-16T21:07:43.343Z,10.30
2023-04-16T21:10:22.702Z,10.30
2023-04-16T21:12:51.073Z,10.20
2023-04-16T21:15:28.595Z,10.20
2023-04-16T21:18:23.713Z,10.20
2023-04-16T21:20:52.257Z,10.20
2023-04-16T21:23:23.717Z,10.00
2023-04-16T21:26:01.317Z,10.20
2023-04-16T21:28:35.390Z,10.20
2023-04-16T21:31:08.669Z,10.30
2023-04-16T21:33:37.248Z,10.30
2023-04-16T21:36:09.455Z,10.30
2023-04-16T21:38:47.547Z,10.20
2023-04-16T21:41:38.359Z,10.20
2023-04-16T21:44:25.472Z,10.20
2023-04-16T21:46:56.114Z,10.10
2023-04-16T21:49:24.843Z,10.20
2023-04-16T21:51:59.446Z,10.20
2023-04-16T21:54:27.632Z,10.20
2023-04-16T21:56:59.479Z,10.20
2023-04-16T21:59:27.831Z,10.30
2023-04-16T22:01:56.431Z,10.20
2023-04-16T22:04:26.492Z,10.20
2023-04-16T22:06:56.646Z,10.20
2023-04-16T22:09:26.468Z,10.20
2023-04-16T22:11:59.826Z,10.20
2023-04-16T22:14:29.567Z,10.20
2023-04-16T22:16:58.693Z,10.20
2023-04-16T22:19:27.418Z,10.20
2023-04-16T22:21:56.260Z,10.20
2023-04-16T22:24:24.628Z,10.10
2023-04-16T22:26:52.757Z,10.20
2023-04-16T22:29:22.358Z,10.20
2023-04-16T22:31:50.513Z,10.20
2023-04-16T22:34:20.016Z,10.20
2023-04-16T22:36:51.729Z,10.20
2023-04-16T22:39:22.844Z,10.20
2023-04-16T22:41:51.630Z,10.20
2023-04-16T22:44:24.239Z,10.20
2023-04-16T22:46:55.470Z,10.20
2023-04-16T22:49:23.812Z,10.20
2023-04-16T22:51:52.010Z,10.20
2023-04-16T22:54:20.079Z,10.10
2023-04-16T22:56:48.619Z,10.20
2023-04-16T22:59:16.800Z,10.10
2023-04-16T23:01:46.307Z,10.10
2023-04-16T23:04:16.198Z,10.20
2023-04-16T23:06:44.451Z,10.20
2023-04-16T23:09:14.199Z,10.10
2023-04-16T23:11:42.566Z,10.10
2023-04-16T23:14:10.814Z,10.10
2023-04-16T23:16:38.929Z,10.10
2023-04-16T23:19:14.683Z,10.20
2023-04-16T23:21:42.952Z,10.10
2023-04-16T23:24:11.107Z,10.20
2023-04-16T23:26:39.192Z,10.20
2023-04-16T23:29:07.249Z,10.10
2023-04-16T23:31:35.483Z,10.20
2023-04-16T23:34:03.617Z,10.10
2023-04-16T23:36:33.096Z,10.10
2023-04-16T23:39:01.146Z,10.10
2023-04-16T23:41:29.259Z,10.10
2023-04-16T23:43:57.523Z,10.00
2023-04-16T23:46:26.268Z,10.10
2023-04-16T23:48:55.254Z,10.00
2023-04-16T23:51:23.448Z,10.10
2023-04-16T23:53:52.961Z,10.10
2023-04-16T23:56:21.220Z,10.10
2023-04-16T23:58:49.300Z,10.10
